createdAt,value
2023-02-07T00:01:36.050Z,-1.39
2023-02-07T00:04:04.811Z,-1.39
2023-02-07T00:06:35.814Z,-1.37
2023-02-07T00:09:06.151Z,-1.39
2023-02-07T00:11:36.789Z,-1.42
2023-02-07T00:14:05.323Z,-1.30
2023-02-07T00:16:33.494Z,-1.42
2023-02-07T00:19:01.716Z,-1.41
2023-02-07T00:21:30.722Z,-1.38
2023-02-07T00:23:59.936Z,-1.62
2023-02-07T00:26:28.635Z,-1.67
2023-02-07T00:28:58.708Z,-1.55
2023-02-07T00:31:30.370Z,-1.37
2023-02-07T00:34:00.902Z,-1.38
2023-02-07T00:36:32.388Z,-1.42
2023-02-07T00:39:02.694Z,-1.58
2023-02-07T00:41:32.369Z,-1.51
2023-02-07T00:44:02.747Z,-1.37
2023-02-07T00:46:30.997Z,-1.44
2023-02-07T00:48:58.987Z,-1.59
2023-02-07T00:51:27.131Z,-1.52
2023-02-07T00:53:55.479Z,-1.56
2023-02-07T00:56:28.244Z,-1.62
2023-02-07T00:58:58.973Z,-1.52
2023-02-07T01:01:29.639Z,-1.52
2023-02-07T01:03:58.089Z,-1.52
2023-02-07T01:06:27.971Z,-1.63
2023-02-07T01:08:58.270Z,-1.60
2023-02-07T01:11:26.212Z,-1.58
2023-02-07T01:13:54.946Z,-1.47
2023-02-07T01:16:25.655Z,-1.47
2023-02-07T01:18:56.024Z,-1.59
2023-02-07T01:21:27.567Z,-1.56
2023-02-07T01:23:57.485Z,-1.49
2023-02-07T01:26:25.854Z,-1.54
2023-02-07T01:28:55.414Z,-1.73
2023-02-07T01:31:24.798Z,-1.70
2023-02-07T01:33:56.993Z,-1.65
2023-02-07T01:36:27.734Z,-1.55
2023-02-07T01:38:56.903Z,-1.56
2023-02-07T01:41:28.686Z,-1.70
2023-02-07T01:44:03.486Z,-1.69
2023-02-07T01:46:34.174Z,-1.67
2023-02-07T01:49:11.502Z,-1.72
2023-02-07T01:51:42.884Z,-1.80
2023-02-07T01:54:15.200Z,-1.87
2023-02-07T01:56:47.686Z,-1.83
2023-02-07T01:59:18.671Z,-1.66
2023-02-07T02:01:47.677Z,-1.84
2023-02-07T02:04:17.024Z,-1.91
2023-02-07T02:06:46.918Z,-1.79
2023-02-07T02:09:17.504Z,-1.77
2023-02-07T02:12:17.873Z,-1.77
2023-02-07T02:14:58.035Z,-1.84
2023-02-07T02:17:35.136Z,-2.14
2023-02-07T02:20:34.596Z,-2.29
2023-02-07T02:23:16.721Z,-2.49
2023-02-07T02:26:11.131Z,-2.69
2023-02-07T02:29:09.945Z,-2.44
2023-02-07T02:32:01.111Z,-2.42
2023-02-07T02:34:40.266Z,-2.27
2023-02-07T02:37:13.747Z,-2.15
2023-02-07T02:39:47.571Z,-2.11
2023-02-07T02:42:19.929Z,-2.02
2023-02-07T02:44:57.631Z,-1.97
2023-02-07T02:47:28.936Z,-2.01
2023-02-07T02:50:00.092Z,-2.02
2023-02-07T02:52:51.414Z,-2.08
2023-02-07T02:55:42.109Z,-2.08
2023-02-07T02:58:20.149Z,-2.14
2023-02-07T03:01:01.934Z,-2.45
2023-02-07T03:03:50.563Z,-2.27
2023-02-07T03:06:38.944Z,-2.12
2023-02-07T03:09:20.681Z,-2.15
2023-02-07T03:11:56.515Z,-2.25
2023-02-07T03:14:31.916Z,-2.24
2023-02-07T03:17:10.162Z,-2.29
2023-02-07T03:19:44.503Z,-2.35
2023-02-07T03:22:19.512Z,-2.24
2023-02-07T03:24:53.940Z,-2.31
2023-02-07T03:27:25.683Z,-2.38
2023-02-07T03:29:57.758Z,-2.27
2023-02-07T03:32:30.740Z,-2.39
2023-02-07T03:35:02.018Z,-2.49
2023-02-07T03:37:37.318Z,-2.95
2023-02-07T03:40:07.346Z,-2.77
2023-02-07T03:42:41.606Z,-2.74
2023-02-07T03:45:14.535Z,-2.60
2023-02-07T03:47:43.444Z,-2.52
2023-02-07T03:50:12.047Z,-2.53
2023-02-07T03:52:41.841Z,-2.48
2023-02-07T03:55:10.857Z,-2.45
2023-02-07T03:57:38.902Z,-2.64
2023-02-07T04:00:08.734Z,-2.59
2023-02-07T04:02:44.610Z,-2.81
2023-02-07T04:05:12.718Z,-2.63
2023-02-07T04:07:42.036Z,-2.48
2023-02-07T04:10:11.869Z,-2.56
2023-02-07T04:12:39.820Z,-2.55
2023-02-07T04:15:09.801Z,-2.64
2023-02-07T04:17:38.388Z,-2.69
2023-02-07T04:20:07.733Z,-2.56
2023-02-07T04:22:35.627Z,-2.49
2023-02-07T04:25:06.363Z,-2.62
2023-02-07T04:27:34.407Z,-2.59
2023-02-07T04:30:02.335Z,-2.59
2023-02-07T04:32:31.165Z,-2.71
2023-02-07T04:34:59.063Z,-2.70
2023-02-07T04:37:27.443Z,-2.90
2023-02-07T04:39:55.934Z,-2.87
2023-02-07T04:42:25.290Z,-2.80
2023-02-07T04:44:53.210Z,-2.83
2023-02-07T04:47:24.773Z,-2.87
2023-02-07T04:49:53.158Z,-2.88
2023-02-07T04:52:21.075Z,-2.81
2023-02-07T04:54:49.918Z,-2.74
2023-02-07T04:57:17.908Z,-2.81
2023-02-07T04:59:47.767Z,-2.81
2023-02-07T05:02:16.530Z,-2.70
2023-02-07T05:04:44.513Z,-2.73
2023-02-07T05:07:12.910Z,-2.70
2023-02-07T05:09:41.240Z,-2.81
2023-02-07T05:12:09.417Z,-2.94
2023-02-07T05:14:37.336Z,-2.94
2023-02-07T05:17:07.652Z,-2.87
2023-02-07T05:19:35.550Z,-2.81
2023-02-07T05:22:03.532Z,-2.84
2023-02-07T05:24:31.943Z,-2.94
2023-02-07T05:27:00.896Z,-3.01
2023-02-07T05:29:28.822Z,-2.94
2023-02-07T05:32:15.037Z,-2.92
2023-02-07T05:34:44.420Z,-3.05
2023-02-07T05:37:12.880Z,-2.98
2023-02-07T05:39:41.860Z,-2.97
2023-02-07T05:42:09.750Z,-2.92
2023-02-07T05:44:38.139Z,-2.97
2023-02-07T05:47:06.558Z,-3.05
2023-02-07T05:49:34.529Z,-2.94
2023-02-07T05:52:03.970Z,-2.90
2023-02-07T05:54:32.970Z,-3.01
2023-02-07T05:57:00.905Z,-2.97
2023-02-07T05:59:29.279Z,-2.97
2023-02-07T06:01:57.768Z,-2.91
2023-02-07T06:04:25.917Z,-2.95
2023-02-07T06:06:53.845Z,-2.94
2023-02-07T06:09:24.098Z,-2.97
2023-02-07T06:11:52.030Z,-2.92
2023-02-07T06:14:20.375Z,-2.99
2023-02-07T06:16:49.248Z,-3.22
2023-02-07T06:19:17.464Z,-3.15
2023-02-07T06:21:46.939Z,-3.07
2023-02-07T06:24:16.433Z,-2.94
2023-02-07T06:26:46.875Z,-3.02
2023-02-07T06:29:17.853Z,-3.05
2023-02-07T06:31:45.859Z,-2.99
2023-02-07T06:34:13.786Z,-3.04
2023-02-07T06:36:42.671Z,-2.95
2023-02-07T06:39:11.210Z,-2.88
2023-02-07T06:41:39.625Z,-2.90
2023-02-07T06:44:09.439Z,-2.91
2023-02-07T06:46:37.247Z,-2.92
2023-02-07T06:49:05.271Z,-3.01
2023-02-07T06:51:35.007Z,-2.87
2023-02-07T06:54:04.024Z,-2.88
2023-02-07T06:56:32.340Z,-2.83
2023-02-07T06:59:00.752Z,-2.84
2023-02-07T07:01:31.628Z,-2.81
2023-02-07T07:03:59.566Z,-2.73
2023-02-07T07:06:28.474Z,-2.66
2023-02-07T07:08:56.434Z,-2.67
2023-02-07T07:11:24.442Z,-2.69
2023-02-07T07:13:52.834Z,-2.63
2023-02-07T07:16:20.881Z,-2.62
2023-02-07T07:18:50.226Z,-2.56
2023-02-07T07:21:18.978Z,-2.44
2023-02-07T07:23:47.389Z,-2.39
2023-02-07T07:26:15.804Z,-2.32
2023-02-07T07:28:44.563Z,-2.19
2023-02-07T07:31:14.741Z,-2.21
2023-02-07T07:33:42.715Z,-2.22
2023-02-07T07:36:13.035Z,-2.19
2023-02-07T07:38:43.144Z,-2.11
2023-02-07T07:41:15.365Z,-2.08
2023-02-07T07:43:43.304Z,-2.22
2023-02-07T07:46:11.609Z,-2.12
2023-02-07T07:48:39.988Z,-2.02
2023-02-07T07:51:08.108Z,-1.89
2023-02-07T07:53:37.391Z,-1.84
2023-02-07T07:56:06.984Z,-1.76
2023-02-07T07:58:34.827Z,-1.75
2023-02-07T08:01:03.248Z,-1.66
2023-02-07T08:03:31.699Z,-1.56
2023-02-07T08:05:59.830Z,-1.55
2023-02-07T08:08:27.871Z,-1.27
2023-02-07T08:11:02.733Z,-1.30
2023-02-07T08:13:33.000Z,-1.22
2023-02-07T08:16:02.189Z,-1.10
2023-02-07T08:18:30.608Z,-1.10
2023-02-07T08:21:00.866Z,-1.03
2023-02-07T08:23:29.282Z,-1.03
2023-02-07T08:25:58.686Z,-1.05
2023-02-07T08:28:27.501Z,-0.97
2023-02-07T08:30:56.161Z,-0.86
2023-02-07T08:33:24.212Z,-0.75
2023-02-07T08:35:52.174Z,-0.93
2023-02-07T08:38:22.702Z,-0.78
2023-02-07T08:40:51.151Z,-0.61
2023-02-07T08:43:20.474Z,-0.70
2023-02-07T08:45:50.565Z,-0.44
2023-02-07T08:48:18.670Z,-0.37
2023-02-07T08:50:46.602Z,-0.41
2023-02-07T08:53:15.556Z,-0.44
2023-02-07T08:55:44.154Z,-0.21
2023-02-07T08:58:12.837Z,-0.13
2023-02-07T09:00:44.261Z,-0.30
2023-02-07T09:03:13.642Z,-0.11
2023-02-07T09:05:42.976Z,0.01
2023-02-07T09:08:11.338Z,0.17
2023-02-07T09:10:39.823Z,0.18
2023-02-07T09:13:08.001Z,0.25
2023-02-07T09:15:37.069Z,0.07
2023-02-07T09:18:06.674Z,0.19
2023-02-07T09:20:35.071Z,0.29
2023-02-07T09:23:21.680Z,0.26
2023-02-07T09:25:52.377Z,0.46
2023-02-07T09:28:23.857Z,0.44
2023-02-07T09:30:52.596Z,0.55
2023-02-07T09:33:23.666Z,0.53
2023-02-07T09:35:52.480Z,0.62
2023-02-07T09:38:23.518Z,0.66
2023-02-07T09:40:53.375Z,0.77
2023-02-07T09:43:38.175Z,0.87
2023-02-07T09:46:13.877Z,0.94
2023-02-07T09:48:51.946Z,0.98
2023-02-07T09:51:23.655Z,1.05
2023-02-07T09:53:56.600Z,1.16
2023-02-07T09:56:27.364Z,1.11
2023-02-07T09:59:02.434Z,1.15
2023-02-07T10:01:36.015Z,1.21
2023-02-07T10:04:28.086Z,1.38
2023-02-07T10:06:58.065Z,1.46
2023-02-07T10:09:29.597Z,1.47
2023-02-07T10:12:05.102Z,1.50
2023-02-07T10:14:50.896Z,1.54
2023-02-07T10:17:32.303Z,1.61
2023-02-07T10:20:18.298Z,1.63
2023-02-07T10:22:57.265Z,1.64
2023-02-07T10:25:35.993Z,1.68
2023-02-07T10:28:26.234Z,1.74
2023-02-07T10:30:59.607Z,1.81
2023-02-07T10:33:34.272Z,1.82
2023-02-07T10:36:07.620Z,1.87
2023-02-07T10:38:43.740Z,1.93
2023-02-07T10:41:18.817Z,2.05
2023-02-07T10:43:48.601Z,2.01
2023-02-07T10:46:20.957Z,2.08
2023-02-07T10:48:49.746Z,2.09
2023-02-07T10:51:29.055Z,2.29
2023-02-07T10:54:07.648Z,2.34
2023-02-07T10:56:41.386Z,2.33
2023-02-07T10:59:47.285Z,2.43
2023-02-07T11:02:48.887Z,2.41
2023-02-07T11:05:55.504Z,2.46
2023-02-07T11:08:29.782Z,2.51
2023-02-07T11:10:59.631Z,2.61
2023-02-07T11:13:30.197Z,2.60
2023-02-07T11:16:04.125Z,2.62
2023-02-07T11:18:55.993Z,2.68
2023-02-07T11:21:29.727Z,2.67
2023-02-07T11:24:02.783Z,2.73
2023-02-07T11:26:33.286Z,2.75
2023-02-07T11:29:09.606Z,2.85
2023-02-07T11:31:39.124Z,2.92
2023-02-07T11:34:28.412Z,3.03
2023-02-07T11:37:08.953Z,3.09
2023-02-07T11:39:39.839Z,3.13
2023-02-07T11:42:13.794Z,3.03
2023-02-07T11:44:44.516Z,3.18
2023-02-07T11:47:17.286Z,3.40
2023-02-07T11:49:49.487Z,3.50
2023-02-07T11:52:18.435Z,3.41
2023-02-07T11:54:54.034Z,3.34
2023-02-07T11:57:24.750Z,3.54
2023-02-07T12:00:07.105Z,3.68
2023-02-07T12:02:41.580Z,3.71
2023-02-07T12:05:18.585Z,3.79
2023-02-07T12:07:50.640Z,3.85
2023-02-07T12:10:27.160Z,3.88
2023-02-07T12:12:59.836Z,3.85
2023-02-07T12:15:34.352Z,3.83
2023-02-07T12:18:06.675Z,3.93
2023-02-07T12:20:40.225Z,3.99
2023-02-07T12:23:40.939Z,3.98
2023-02-07T12:26:15.398Z,4.11
2023-02-07T12:28:49.242Z,4.43
2023-02-07T12:31:29.085Z,4.36
2023-02-07T12:34:02.219Z,4.40
2023-02-07T12:36:35.355Z,4.38
2023-02-07T12:39:12.762Z,4.38
2023-02-07T12:41:47.830Z,4.38
2023-02-07T12:44:23.659Z,4.68
2023-02-07T12:47:02.845Z,4.68
2023-02-07T12:49:48.779Z,4.85
2023-02-07T12:52:27.293Z,4.76
2023-02-07T12:55:12.686Z,4.67
2023-02-07T12:57:49.630Z,4.92
2023-02-07T13:00:23.984Z,5.00
2023-02-07T13:03:05.755Z,4.99
2023-02-07T13:05:47.517Z,4.85
2023-02-07T13:08:27.616Z,5.06
2023-02-07T13:11:05.395Z,5.00
2023-02-07T13:13:41.967Z,5.24
2023-02-07T13:16:16.251Z,5.44
2023-02-07T13:18:51.371Z,6.37
2023-02-07T13:21:28.634Z,6.34
2023-02-07T13:24:01.035Z,7.52
2023-02-07T13:26:29.840Z,8.05
2023-02-07T13:29:01.998Z,8.04
2023-02-07T13:31:37.670Z,8.54
2023-02-07T13:36:40.789Z,9.80
2023-02-07T13:39:21.165Z,9.97
2023-02-07T13:42:00.836Z,8.89
2023-02-07T13:44:38.601Z,9.23
2023-02-07T13:47:50.043Z,9.60
2023-02-07T13:53:04.257Z,9.88
2023-02-07T13:55:38.424Z,8.81
2023-02-07T13:58:44.900Z,9.12
2023-02-07T14:01:19.922Z,9.81
2023-02-07T14:04:02.976Z,8.88
2023-02-07T14:06:37.464Z,7.84
2023-02-07T14:09:10.987Z,7.21
2023-02-07T14:11:44.323Z,8.06
2023-02-07T14:14:23.427Z,7.59
2023-02-07T14:16:55.871Z,7.80
2023-02-07T14:19:50.323Z,6.80
2023-02-07T14:22:20.787Z,6.75
2023-02-07T14:24:52.869Z,6.46
2023-02-07T14:27:33.355Z,6.32
2023-02-07T14:30:31.322Z,5.62
2023-02-07T14:33:17.040Z,5.73
2023-02-07T14:36:18.558Z,4.86
2023-02-07T14:39:02.841Z,4.45
2023-02-07T14:41:33.573Z,4.11
2023-02-07T14:44:09.429Z,4.02
2023-02-07T14:46:41.489Z,4.05
2023-02-07T14:49:16.764Z,3.99
2023-02-07T14:51:48.523Z,4.13
2023-02-07T14:54:24.679Z,3.99
2023-02-07T14:57:03.257Z,3.96
2023-02-07T14:59:36.845Z,4.02
2023-02-07T15:02:30.315Z,4.14
2023-02-07T15:05:00.462Z,4.23
2023-02-07T15:07:28.752Z,4.43
2023-02-07T15:09:57.125Z,4.29
2023-02-07T15:12:28.160Z,4.02
2023-02-07T15:14:58.339Z,3.65
2023-02-07T15:17:42.629Z,3.46
2023-02-07T15:20:17.689Z,3.30
2023-02-07T15:22:49.707Z,3.24
2023-02-07T15:25:18.520Z,3.22
2023-02-07T15:28:00.681Z,3.08
2023-02-07T15:30:29.208Z,3.06
2023-02-07T15:32:57.179Z,2.94
2023-02-07T15:35:28.826Z,2.87
2023-02-07T15:38:15.714Z,2.81
2023-02-07T15:40:43.761Z,2.75
2023-02-07T15:43:25.939Z,2.68
2023-02-07T15:46:10.219Z,2.64
2023-02-07T15:48:50.939Z,2.67
2023-02-07T15:51:25.667Z,2.58
2023-02-07T15:53:58.462Z,2.54
2023-02-07T15:56:30.304Z,2.57
2023-02-07T15:59:03.110Z,2.53
2023-02-07T16:01:32.520Z,2.44
2023-02-07T16:04:01.004Z,2.43
2023-02-07T16:06:33.712Z,2.21
2023-02-07T16:09:04.365Z,2.23
2023-02-07T16:11:40.130Z,2.15
2023-02-07T16:14:19.748Z,1.98
2023-02-07T16:16:50.925Z,1.97
2023-02-07T16:19:20.855Z,1.85
2023-02-07T16:21:55.986Z,1.71
2023-02-07T16:24:27.512Z,1.52
2023-02-07T16:26:57.632Z,1.61
2023-02-07T16:29:27.154Z,1.66
2023-02-07T16:31:55.885Z,1.75
2023-02-07T16:34:24.905Z,1.63
2023-02-07T16:36:55.761Z,1.32
2023-02-07T16:39:25.063Z,1.32
2023-02-07T16:41:57.177Z,1.31
2023-02-07T16:44:28.647Z,1.28
2023-02-07T16:46:56.643Z,1.00
2023-02-07T16:49:26.163Z,0.92
2023-02-07T16:51:56.420Z,0.87
2023-02-07T16:54:24.664Z,0.79
2023-02-07T16:56:55.698Z,0.70
2023-02-07T16:59:25.292Z,0.67
2023-02-07T17:01:55.026Z,0.70
2023-02-07T17:04:25.794Z,0.60
2023-02-07T17:06:55.085Z,0.64
2023-02-07T17:09:25.652Z,0.77
2023-02-07T17:11:54.814Z,0.63
2023-02-07T17:14:23.253Z,0.73
2023-02-07T17:16:52.235Z,0.74
2023-02-07T17:19:23.014Z,0.45
2023-02-07T17:21:52.852Z,0.30
2023-02-07T17:24:22.586Z,0.49
2023-02-07T17:26:54.043Z,0.46
2023-02-07T17:29:23.232Z,0.45
2023-02-07T17:31:51.511Z,0.48
2023-02-07T17:34:20.006Z,0.50
2023-02-07T17:36:49.961Z,0.30
2023-02-07T17:39:19.976Z,0.25
2023-02-07T17:41:50.348Z,0.01
2023-02-07T17:44:21.369Z,-0.07
2023-02-07T17:46:50.034Z,-0.03
2023-02-07T17:49:18.750Z,0.05
2023-02-07T17:51:46.772Z,0.17
2023-02-07T17:54:14.820Z,0.22
2023-02-07T17:56:43.258Z,0.12
2023-02-07T17:59:22.260Z,0.17
2023-02-07T18:01:50.921Z,0.11
2023-02-07T18:04:18.922Z,0.01
2023-02-07T18:06:47.957Z,-0.14
2023-02-07T18:09:20.037Z,-0.13
2023-02-07T18:11:48.081Z,0.04
2023-02-07T18:14:17.426Z,-0.06
2023-02-07T18:16:46.438Z,0.05
2023-02-07T18:19:17.458Z,0.14
2023-02-07T18:21:46.309Z,0.15
2023-02-07T18:24:14.244Z,0.00
2023-02-07T18:26:42.972Z,-0.11
2023-02-07T18:29:10.938Z,0.05
2023-02-07T18:31:40.520Z,-0.02
2023-02-07T18:34:08.710Z,0.04
2023-02-07T18:36:41.044Z,-0.03
2023-02-07T18:39:09.947Z,0.12
2023-02-07T18:41:38.340Z,0.21
2023-02-07T18:44:14.033Z,0.12
2023-02-07T18:46:43.998Z,-0.17
2023-02-07T18:49:15.498Z,-0.48
2023-02-07T18:51:43.483Z,-0.33
2023-02-07T18:54:11.737Z,-0.35
2023-02-07T18:56:41.651Z,-0.35
2023-02-07T18:59:09.443Z,-0.51
2023-02-07T19:01:37.414Z,-0.40
2023-02-07T19:04:07.667Z,-0.44
2023-02-07T19:06:35.491Z,-0.55
2023-02-07T19:09:03.466Z,-0.50
2023-02-07T19:11:31.861Z,-0.62
2023-02-07T19:13:59.872Z,-0.52
2023-02-07T19:16:28.070Z,-0.55
2023-02-07T19:19:01.358Z,-0.44
2023-02-07T19:21:30.839Z,-0.37
2023-02-07T19:23:59.642Z,-0.48
2023-02-07T19:26:27.809Z,-0.51
2023-02-07T19:28:58.740Z,-0.37
2023-02-07T19:31:29.670Z,-0.41
2023-02-07T19:33:59.320Z,-0.59
2023-02-07T19:36:28.469Z,-0.62
2023-02-07T19:38:59.247Z,-0.72
2023-02-07T19:41:30.538Z,-0.69
2023-02-07T19:43:58.654Z,-0.66
2023-02-07T19:46:26.882Z,-0.47
2023-02-07T19:48:55.759Z,-0.42
2023-02-07T19:51:25.308Z,-0.50
2023-02-07T19:53:54.065Z,-0.51
2023-02-07T19:56:26.238Z,-0.52
2023-02-07T19:58:56.595Z,-0.61
2023-02-07T20:01:26.321Z,-0.62
2023-02-07T20:03:56.820Z,-0.69
2023-02-07T20:06:31.355Z,-0.72
2023-02-07T20:09:01.852Z,-0.76
2023-02-07T20:11:32.718Z,-0.76
2023-02-07T20:14:03.793Z,-0.86
2023-02-07T20:16:34.687Z,-0.83
2023-02-07T20:19:05.813Z,-0.89
2023-02-07T20:21:35.795Z,-0.89
2023-02-07T20:24:05.568Z,-0.90
2023-02-07T20:26:37.563Z,-0.92
2023-02-07T20:29:09.862Z,-0.94
2023-02-07T20:31:39.160Z,-0.87
2023-02-07T20:34:07.387Z,-0.85
2023-02-07T20:36:41.165Z,-0.99
2023-02-07T20:39:11.132Z,-1.03
2023-02-07T20:41:41.575Z,-1.05
2023-02-07T20:44:13.137Z,-0.97
2023-02-07T20:46:42.322Z,-0.87
2023-02-07T20:49:13.600Z,-0.92
2023-02-07T20:51:43.962Z,-0.99
2023-02-07T20:54:13.915Z,-1.03
2023-02-07T20:56:43.925Z,-1.34
2023-02-07T20:59:19.000Z,-1.39
2023-02-07T21:01:49.426Z,-1.27
2023-02-07T21:04:17.439Z,-1.30
2023-02-07T21:06:46.255Z,-1.27
2023-02-07T21:09:16.238Z,-1.18
2023-02-07T21:11:48.973Z,-1.30
2023-02-07T21:14:19.853Z,-1.07
2023-02-07T21:16:49.154Z,-1.04
2023-02-07T21:19:17.464Z,-1.03
2023-02-07T21:21:47.151Z,-1.14
2023-02-07T21:24:16.190Z,-1.14
2023-02-07T21:26:48.171Z,-1.17
2023-02-07T21:29:17.055Z,-1.24
2023-02-07T21:31:45.381Z,-1.21
2023-02-07T21:34:17.066Z,-1.28
2023-02-07T21:36:45.282Z,-1.37
2023-02-07T21:39:13.445Z,-1.42
2023-02-07T21:41:43.988Z,-1.31
2023-02-07T21:44:15.362Z,-1.35
2023-02-07T21:46:47.154Z,-1.39
2023-02-07T21:49:17.524Z,-1.48
2023-02-07T21:51:48.251Z,-1.51
2023-02-07T21:54:16.953Z,-1.45
2023-02-07T21:56:45.612Z,-1.44
2023-02-07T21:59:17.526Z,-1.41
2023-02-07T22:01:46.131Z,-1.32
2023-02-07T22:04:15.758Z,-1.28
2023-02-07T22:06:47.141Z,-1.22
2023-02-07T22:09:18.545Z,-1.34
2023-02-07T22:11:46.801Z,-1.38
2023-02-07T22:14:17.352Z,-1.35
2023-02-07T22:16:47.329Z,-1.45
2023-02-07T22:19:17.137Z,-1.47
2023-02-07T22:21:47.283Z,-1.60
2023-02-07T22:24:17.944Z,-1.67
2023-02-07T22:26:45.956Z,-1.67
2023-02-07T22:29:16.308Z,-1.65
2023-02-07T22:31:44.445Z,-1.66
2023-02-07T22:34:14.227Z,-1.63
2023-02-07T22:36:45.249Z,-1.62
2023-02-07T22:39:14.901Z,-1.62
2023-02-07T22:41:43.174Z,-1.59
2023-02-07T22:44:12.022Z,-1.63
2023-02-07T22:46:41.538Z,-1.69
2023-02-07T22:49:09.649Z,-1.75
2023-02-07T22:51:39.161Z,-1.69
2023-02-07T22:54:08.825Z,-1.80
2023-02-07T22:56:40.126Z,-1.93
2023-02-07T22:59:08.279Z,-1.82
2023-02-07T23:01:39.275Z,-1.79
2023-02-07T23:04:13.127Z,-1.94
2023-02-07T23:06:43.852Z,-1.79
2023-02-07T23:09:12.941Z,-1.72
2023-02-07T23:11:40.893Z,-1.89
2023-02-07T23:14:08.817Z,-2.01
2023-02-07T23:16:37.938Z,-1.93
2023-02-07T23:19:09.281Z,-1.97
2023-02-07T23:21:38.338Z,-1.98
2023-02-07T23:24:06.684Z,-1.94
2023-02-07T23:26:35.587Z,-1.91
2023-02-07T23:29:04.190Z,-2.08
2023-02-07T23:31:33.563Z,-2.02
2023-02-07T23:34:02.294Z,-1.86
2023-02-07T23:36:32.003Z,-1.84
2023-02-07T23:38:59.998Z,-1.79
2023-02-07T23:41:28.073Z,-1.82
2023-02-07T23:43:57.518Z,-1.91
2023-02-07T23:46:25.489Z,-2.12
2023-02-07T23:48:53.585Z,-2.08
2023-02-07T23:51:22.073Z,-2.05
2023-02-07T23:53:51.652Z,-2.15
2023-02-07T23:56:21.783Z,-2.32
2023-02-07T23:58:50.643Z,-2.38
